sensor_id;sensor_type;location;lat;lon;timestamp;P1;durP1;ratioP1;P2;durP2;ratioP2
60885;SDS011;46736;41.654;-8.438;2023-08-06T00:01:06;0.30;;;0.30;;
60885;SDS011;46736;41.654;-8.438;2023-08-06T00:03:07;0.20;;;0.20;;
60885;SDS011;46736;41.654;-8.438;2023-08-06T00:05:07;0.20;;;0.20;;
60885;SDS011;46736;41.654;-8.438;2023-08-06T00:07:08;0.30;;;0.30;;
60885;SDS011;46736;41.654;-8.438;2023-08-06T00:09:08;0.30;;;0.30;;
60885;SDS011;46736;41.654;-8.438;2023-08-06T00:11:09;0.30;;;0.30;;
60885;SDS011;46736;41.654;-8.438;2023-08-06T00:13:09;0.20;;;0.20;;
60885;SDS011;46736;41.654;-8.438;2023-08-06T00:15:10;0.20;;;0.20;;
60885;SDS011;46736;41.654;-8.438;2023-08-06T00:17:11;0.30;;;0.30;;
60885;SDS011;46736;41.654;-8.438;2023-08-06T00:19:12;0.20;;;0.20;;
60885;SDS011;46736;41.654;-8.438;2023-08-06T00:21:12;0.30;;;0.30;;
60885;SDS011;46736;41.654;-8.438;2023-08-06T00:23:13;0.20;;;0.20;;
60885;SDS011;46736;41.654;-8.438;2023-08-06T00:25:13;0.20;;;0.20;;
60885;SDS011;46736;41.654;-8.438;2023-08-06T00:27:14;0.20;;;0.20;;
60885;SDS011;46736;41.654;-8.438;2023-08-06T00:29:14;0.30;;;0.30;;
60885;SDS011;46736;41.654;-8.438;2023-08-06T00:31:16;0.20;;;0.20;;
60885;SDS011;46736;41.654;-8.438;2023-08-06T00:33:16;0.20;;;0.20;;
60885;SDS011;46736;41.654;-8.438;2023-08-06T00:35:17;0.30;;;0.30;;
60885;SDS011;46736;41.654;-8.438;2023-08-06T00:37:17;0.30;;;0.30;;
60885;SDS011;46736;41.654;-8.438;2023-08-06T00:39:18;0.30;;;0.30;;
60885;SDS011;46736;41.654;-8.438;2023-08-06T00:41:18;0.22;;;0.22;;
60885;SDS011;46736;41.654;-8.438;2023-08-06T00:43:19;0.20;;;0.20;;
60885;SDS011;46736;41.654;-8.438;2023-08-06T00:45:19;0.30;;;0.30;;
60885;SDS011;46736;41.654;-8.438;2023-08-06T00:47:20;0.20;;;0.20;;
60885;SDS011;46736;41.654;-8.438;2023-08-06T00:49:20;0.20;;;0.20;;
60885;SDS011;46736;41.654;-8.438;2023-08-06T00:51:21;0.20;;;0.20;;
60885;SDS011;46736;41.654;-8.438;2023-08-06T00:53:22;0.20;;;0.20;;
60885;SDS011;46736;41.654;-8.438;2023-08-06T00:55:23;0.20;;;0.20;;
60885;SDS011;46736;41.654;-8.438;2023-08-06T00:57:24;0.20;;;0.20;;
60885;SDS011;46736;41.654;-8.438;2023-08-06T00:59:26;0.20;;;0.20;;
60885;SDS011;46736;41.654;-8.438;2023-08-06T01:01:26;0.20;;;0.20;;
60885;SDS011;46736;41.654;-8.438;2023-08-06T01:03:27;0.20;;;0.20;;
60885;SDS011;46736;41.654;-8.438;2023-08-06T01:05:27;0.20;;;0.20;;
60885;SDS011;46736;41.654;-8.438;2023-08-06T01:11:33;0.20;;;0.20;;
60885;SDS011;46736;41.654;-8.438;2023-08-06T01:13:42;0.30;;;0.30;;
60885;SDS011;46736;41.654;-8.438;2023-08-06T01:15:46;0.30;;;0.30;;
60885;SDS011;46736;41.654;-8.438;2023-08-06T01:17:46;0.20;;;0.20;;
60885;SDS011;46736;41.654;-8.438;2023-08-06T01:19:47;0.20;;;0.20;;
60885;SDS011;46736;41.654;-8.438;2023-08-06T01:21:51;0.30;;;0.30;;
60885;SDS011;46736;41.654;-8.438;2023-08-06T01:23:52;0.20;;;0.20;;
60885;SDS011;46736;41.654;-8.438;2023-08-06T01:28:16;0.30;;;0.30;;
60885;SDS011;46736;41.654;-8.438;2023-08-06T01:30:20;0.30;;;0.30;;
60885;SDS011;46736;41.654;-8.438;2023-08-06T01:32:23;0.30;;;0.30;;
60885;SDS011;46736;41.654;-8.438;2023-08-06T01:34:25;0.20;;;0.20;;
60885;SDS011;46736;41.654;-8.438;2023-08-06T01:36:28;0.30;;;0.30;;
60885;SDS011;46736;41.654;-8.438;2023-08-06T01:38:29;0.20;;;0.20;;
60885;SDS011;46736;41.654;-8.438;2023-08-06T01:40:29;0.20;;;0.20;;
60885;SDS011;46736;41.654;-8.438;2023-08-06T01:42:31;0.20;;;0.20;;
60885;SDS011;46736;41.654;-8.438;2023-08-06T01:44:31;0.30;;;0.30;;
60885;SDS011;46736;41.654;-8.438;2023-08-06T01:46:33;0.30;;;0.30;;
60885;SDS011;46736;41.654;-8.438;2023-08-06T01:48:33;0.30;;;0.30;;
60885;SDS011;46736;41.654;-8.438;2023-08-06T01:50:34;0.20;;;0.20;;
60885;SDS011;46736;41.654;-8.438;2023-08-06T01:52:34;0.30;;;0.30;;
60885;SDS011;46736;41.654;-8.438;2023-08-06T01:54:35;0.30;;;0.30;;
60885;SDS011;46736;41.654;-8.438;2023-08-06T01:56:35;0.30;;;0.30;;
60885;SDS011;46736;41.654;-8.438;2023-08-06T01:58:36;0.30;;;0.30;;
60885;SDS011;46736;41.654;-8.438;2023-08-06T02:00:37;0.30;;;0.30;;
60885;SDS011;46736;41.654;-8.438;2023-08-06T02:02:37;0.30;;;0.30;;
60885;SDS011;46736;41.654;-8.438;2023-08-06T02:04:41;0.30;;;0.30;;
60885;SDS011;46736;41.654;-8.438;2023-08-06T02:06:41;0.30;;;0.30;;
60885;SDS011;46736;41.654;-8.438;2023-08-06T02:08:42;0.30;;;0.30;;
60885;SDS011;46736;41.654;-8.438;2023-08-06T02:10:42;0.30;;;0.30;;
60885;SDS011;46736;41.654;-8.438;2023-08-06T02:12:43;0.30;;;0.30;;
60885;SDS011;46736;41.654;-8.438;2023-08-06T02:19:20;0.30;;;0.30;;
60885;SDS011;46736;41.654;-8.438;2023-08-06T02:21:38;0.30;;;0.30;;
60885;SDS011;46736;41.654;-8.438;2023-08-06T02:23:58;0.20;;;0.20;;
60885;SDS011;46736;41.654;-8.438;2023-08-06T02:26:05;0.30;;;0.30;;
60885;SDS011;46736;41.654;-8.438;2023-08-06T02:28:08;0.30;;;0.30;;
60885;SDS011;46736;41.654;-8.438;2023-08-06T02:30:15;0.20;;;0.20;;
60885;SDS011;46736;41.654;-8.438;2023-08-06T02:32:42;0.30;;;0.30;;
60885;SDS011;46736;41.654;-8.438;2023-08-06T02:34:47;0.30;;;0.30;;
60885;SDS011;46736;41.654;-8.438;2023-08-06T02:36:51;0.30;;;0.30;;
60885;SDS011;46736;41.654;-8.438;2023-08-06T02:39:09;0.20;;;0.20;;
60885;SDS011;46736;41.654;-8.438;2023-08-06T02:41:09;0.30;;;0.30;;
60885;SDS011;46736;41.654;-8.438;2023-08-06T02:43:23;0.30;;;0.30;;
60885;SDS011;46736;41.654;-8.438;2023-08-06T03:09:07;0.30;;;0.30;;
60885;SDS011;46736;41.654;-8.438;2023-08-06T03:42:20;0.30;;;0.30;;
60885;SDS011;46736;41.654;-8.438;2023-08-06T03:44:23;0.30;;;0.30;;
60885;SDS011;46736;41.654;-8.438;2023-08-06T03:46:24;0.30;;;0.30;;
60885;SDS011;46736;41.654;-8.438;2023-08-06T03:48:28;0.30;;;0.30;;
60885;SDS011;46736;41.654;-8.438;2023-08-06T03:50:33;0.30;;;0.30;;
60885;SDS011;46736;41.654;-8.438;2023-08-06T03:52:35;0.30;;;0.30;;
60885;SDS011;46736;41.654;-8.438;2023-08-06T03:55:08;0.30;;;0.30;;
60885;SDS011;46736;41.654;-8.438;2023-08-06T03:57:36;0.30;;;0.30;;
60885;SDS011;46736;41.654;-8.438;2023-08-06T03:59:44;0.30;;;0.30;;
60885;SDS011;46736;41.654;-8.438;2023-08-06T04:01:45;0.30;;;0.30;;
60885;SDS011;46736;41.654;-8.438;2023-08-06T04:03:48;0.30;;;0.30;;
60885;SDS011;46736;41.654;-8.438;2023-08-06T04:05:49;0.30;;;0.30;;
60885;SDS011;46736;41.654;-8.438;2023-08-06T04:07:50;0.30;;;0.30;;
60885;SDS011;46736;41.654;-8.438;2023-08-06T04:09:57;0.30;;;0.30;;
60885;SDS011;46736;41.654;-8.438;2023-08-06T04:12:03;0.30;;;0.30;;
60885;SDS011;46736;41.654;-8.438;2023-08-06T04:14:08;0.30;;;0.30;;
60885;SDS011;46736;41.654;-8.438;2023-08-06T04:16:10;0.30;;;0.30;;
60885;SDS011;46736;41.654;-8.438;2023-08-06T04:18:58;0.30;;;0.30;;
60885;SDS011;46736;41.654;-8.438;2023-08-06T04:20:59;0.30;;;0.30;;
60885;SDS011;46736;41.654;-8.438;2023-08-06T04:23:05;0.30;;;0.30;;
60885;SDS011;46736;41.654;-8.438;2023-08-06T04:25:08;0.30;;;0.30;;
60885;SDS011;46736;41.654;-8.438;2023-08-06T04:29:33;0.20;;;0.20;;
60885;SDS011;46736;41.654;-8.438;2023-08-06T04:31:34;0.30;;;0.30;;
60885;SDS011;46736;41.654;-8.438;2023-08-06T04:38:23;0.28;;;0.28;;
60885;SDS011;46736;41.654;-8.438;2023-08-06T04:40:44;0.30;;;0.30;;
60885;SDS011;46736;41.654;-8.438;2023-08-06T04:42:48;0.30;;;0.30;;
60885;SDS011;46736;41.654;-8.438;2023-08-06T04:44:49;0.30;;;0.30;;
60885;SDS011;46736;41.654;-8.438;2023-08-06T04:54:48;0.30;;;0.30;;
60885;SDS011;46736;41.654;-8.438;2023-08-06T05:13:16;0.30;;;0.30;;
60885;SDS011;46736;41.654;-8.438;2023-08-06T05:15:17;0.25;;;0.25;;
60885;SDS011;46736;41.654;-8.438;2023-08-06T05:17:21;0.30;;;0.30;;
60885;SDS011;46736;41.654;-8.438;2023-08-06T05:19:25;0.30;;;0.30;;
60885;SDS011;46736;41.654;-8.438;2023-08-06T05:21:26;0.40;;;0.40;;
60885;SDS011;46736;41.654;-8.438;2023-08-06T05:23:33;0.30;;;0.30;;
60885;SDS011;46736;41.654;-8.438;2023-08-06T05:25:34;0.40;;;0.40;;
60885;SDS011;46736;41.654;-8.438;2023-08-06T05:27:35;0.30;;;0.30;;
60885;SDS011;46736;41.654;-8.438;2023-08-06T05:29:35;0.30;;;0.30;;
60885;SDS011;46736;41.654;-8.438;2023-08-06T05:31:38;0.30;;;0.30;;
60885;SDS011;46736;41.654;-8.438;2023-08-06T05:39:16;0.30;;;0.30;;
60885;SDS011;46736;41.654;-8.438;2023-08-06T05:43:57;0.30;;;0.30;;
60885;SDS011;46736;41.654;-8.438;2023-08-06T05:45:58;0.30;;;0.30;;
60885;SDS011;46736;41.654;-8.438;2023-08-06T05:50:11;0.30;;;0.30;;
60885;SDS011;46736;41.654;-8.438;2023-08-06T05:54:44;0.30;;;0.30;;
60885;SDS011;46736;41.654;-8.438;2023-08-06T05:56:45;0.30;;;0.30;;
60885;SDS011;46736;41.654;-8.438;2023-08-06T06:03:47;0.30;;;0.30;;
60885;SDS011;46736;41.654;-8.438;2023-08-06T06:05:48;0.30;;;0.30;;
60885;SDS011;46736;41.654;-8.438;2023-08-06T06:07:49;0.30;;;0.30;;
60885;SDS011;46736;41.654;-8.438;2023-08-06T06:12:42;0.30;;;0.30;;
60885;SDS011;46736;41.654;-8.438;2023-08-06T06:14:48;0.30;;;0.30;;
60885;SDS011;46736;41.654;-8.438;2023-08-06T06:16:50;0.30;;;0.30;;
60885;SDS011;46736;41.654;-8.438;2023-08-06T06:18:56;0.30;;;0.30;;
60885;SDS011;46736;41.654;-8.438;2023-08-06T06:21:01;0.30;;;0.30;;
60885;SDS011;46736;41.654;-8.438;2023-08-06T06:23:02;0.30;;;0.30;;
60885;SDS011;46736;41.654;-8.438;2023-08-06T06:27:42;0.30;;;0.30;;
60885;SDS011;46736;41.654;-8.438;2023-08-06T06:29:47;0.20;;;0.20;;
60885;SDS011;46736;41.654;-8.438;2023-08-06T06:32:21;0.30;;;0.30;;
60885;SDS011;46736;41.654;-8.438;2023-08-06T06:34:21;0.30;;;0.30;;
60885;SDS011;46736;41.654;-8.438;2023-08-06T06:36:22;0.30;;;0.30;;
60885;SDS011;46736;41.654;-8.438;2023-08-06T06:38:24;0.30;;;0.30;;
60885;SDS011;46736;41.654;-8.438;2023-08-06T06:40:24;0.30;;;0.30;;
60885;SDS011;46736;41.654;-8.438;2023-08-06T06:42:25;0.35;;;0.35;;
60885;SDS011;46736;41.654;-8.438;2023-08-06T06:44:32;0.30;;;0.30;;
60885;SDS011;46736;41.654;-8.438;2023-08-06T06:46:32;0.30;;;0.30;;
60885;SDS011;46736;41.654;-8.438;2023-08-06T06:48:33;0.30;;;0.30;;
60885;SDS011;46736;41.654;-8.438;2023-08-06T06:50:35;0.30;;;0.30;;
60885;SDS011;46736;41.654;-8.438;2023-08-06T06:52:35;0.30;;;0.30;;
60885;SDS011;46736;41.654;-8.438;2023-08-06T06:54:36;0.30;;;0.30;;
60885;SDS011;46736;41.654;-8.438;2023-08-06T06:56:36;0.20;;;0.20;;
60885;SDS011;46736;41.654;-8.438;2023-08-06T06:58:38;0.30;;;0.30;;
60885;SDS011;46736;41.654;-8.438;2023-08-06T07:00:41;0.20;;;0.20;;
60885;SDS011;46736;41.654;-8.438;2023-08-06T07:02:41;0.30;;;0.30;;
60885;SDS011;46736;41.654;-8.438;2023-08-06T07:04:42;0.30;;;0.30;;
60885;SDS011;46736;41.654;-8.438;2023-08-06T07:06:42;0.30;;;0.30;;
60885;SDS011;46736;41.654;-8.438;2023-08-06T07:08:43;0.20;;;0.20;;
60885;SDS011;46736;41.654;-8.438;2023-08-06T07:10:44;0.30;;;0.30;;
60885;SDS011;46736;41.654;-8.438;2023-08-06T07:12:44;0.30;;;0.30;;
60885;SDS011;46736;41.654;-8.438;2023-08-06T07:14:44;0.30;;;0.30;;
60885;SDS011;46736;41.654;-8.438;2023-08-06T07:16:45;0.30;;;0.30;;
60885;SDS011;46736;41.654;-8.438;2023-08-06T07:18:45;0.30;;;0.30;;
60885;SDS011;46736;41.654;-8.438;2023-08-06T07:20:51;0.35;;;0.35;;
60885;SDS011;46736;41.654;-8.438;2023-08-06T07:22:51;0.30;;;0.30;;
60885;SDS011;46736;41.654;-8.438;2023-08-06T07:24:52;0.30;;;0.30;;
60885;SDS011;46736;41.654;-8.438;2023-08-06T07:26:52;0.30;;;0.30;;
60885;SDS011;46736;41.654;-8.438;2023-08-06T07:28:53;0.30;;;0.30;;
60885;SDS011;46736;41.654;-8.438;2023-08-06T07:30:53;0.30;;;0.30;;
60885;SDS011;46736;41.654;-8.438;2023-08-06T07:32:54;0.20;;;0.20;;
60885;SDS011;46736;41.654;-8.438;2023-08-06T07:34:54;0.30;;;0.30;;
60885;SDS011;46736;41.654;-8.438;2023-08-06T07:36:59;0.30;;;0.30;;
60885;SDS011;46736;41.654;-8.438;2023-08-06T07:39:00;0.30;;;0.30;;
60885;SDS011;46736;41.654;-8.438;2023-08-06T07:41:02;0.30;;;0.30;;
60885;SDS011;46736;41.654;-8.438;2023-08-06T07:43:02;0.30;;;0.30;;
60885;SDS011;46736;41.654;-8.438;2023-08-06T07:45:03;0.30;;;0.30;;
60885;SDS011;46736;41.654;-8.438;2023-08-06T07:47:04;0.20;;;0.20;;
60885;SDS011;46736;41.654;-8.438;2023-08-06T07:49:06;0.30;;;0.30;;
60885;SDS011;46736;41.654;-8.438;2023-08-06T07:51:07;0.30;;;0.30;;
60885;SDS011;46736;41.654;-8.438;2023-08-06T07:53:07;0.30;;;0.30;;
60885;SDS011;46736;41.654;-8.438;2023-08-06T07:55:08;0.30;;;0.30;;
60885;SDS011;46736;41.654;-8.438;2023-08-06T07:57:09;0.30;;;0.30;;
60885;SDS011;46736;41.654;-8.438;2023-08-06T07:59:09;0.30;;;0.30;;
60885;SDS011;46736;41.654;-8.438;2023-08-06T08:01:10;0.30;;;0.30;;
60885;SDS011;46736;41.654;-8.438;2023-08-06T08:07:47;0.20;;;0.20;;
60885;SDS011;46736;41.654;-8.438;2023-08-06T08:26:09;0.00;;;0.00;;
60885;SDS011;46736;41.654;-8.438;2023-08-06T08:47:09;0.00;;;0.00;;
60885;SDS011;46736;41.654;-8.438;2023-08-06T08:49:15;0.00;;;0.00;;
60885;SDS011;46736;41.654;-8.438;2023-08-06T09:34:06;0.00;;;0.00;;
60885;SDS011;46736;41.654;-8.438;2023-08-06T09:36:26;0.00;;;0.00;;
60885;SDS011;46736;41.654;-8.438;2023-08-06T09:38:39;0.00;;;0.00;;
60885;SDS011;46736;41.654;-8.438;2023-08-06T09:43:18;0.00;;;0.00;;
60885;SDS011;46736;41.654;-8.438;2023-08-06T09:45:55;0.10;;;0.10;;
60885;SDS011;46736;41.654;-8.438;2023-08-06T11:57:05;0.00;;;0.00;;
60885;SDS011;46736;41.654;-8.438;2023-08-06T13:02:11;0.00;;;0.00;;
60885;SDS011;46736;41.654;-8.438;2023-08-06T13:07:31;0.00;;;0.00;;
